sensor_id;sensor_type;location;lat;lon;timestamp;pressure;altitude;pressure_sealevel;temperature;humidity
19108;BME280;9686;48.832;9.126;2022-10-03T07:14:05;99243.75;;;13.20;100.00
19108;BME280;9686;48.832;9.126;2022-10-03T07:39:12;99246.41;;;13.34;100.00
19108;BME280;9686;48.832;9.126;2022-10-03T07:51:30;99241.16;;;13.40;100.00
19108;BME280;9686;48.832;9.126;2022-10-03T07:57:55;99246.41;;;13.34;100.00
19108;BME280;9686;48.832;9.126;2022-10-03T08:15:38;99246.38;;;13.36;100.00
19108;BME280;9686;48.832;9.126;2022-10-03T08:53:10;99259.47;;;13.45;100.00
19108;BME280;9686;48.832;9.126;2022-10-03T09:09:04;99251.63;;;13.54;100.00
19108;BME280;9686;48.832;9.126;2022-10-03T09:21:28;99255.09;;;13.64;100.00
19108;BME280;9686;48.832;9.126;2022-10-03T09:28:02;99243.69;;;13.78;100.00
19108;BME280;9686;48.832;9.126;2022-10-03T09:31:24;99244.56;;;13.79;100.00
19108;BME280;9686;48.832;9.126;2022-10-03T09:34:06;99239.34;;;13.80;100.00
19108;BME280;9686;48.832;9.126;2022-10-03T10:08:02;99232.06;;;14.57;100.00
19108;BME280;9686;48.832;9.126;2022-10-03T11:00:45;99231.19;;;15.73;100.00
19108;BME280;9686;48.832;9.126;2022-10-03T11:06:57;99226.22;;;15.39;100.00
19108;BME280;9686;48.832;9.126;2022-10-03T11:29:51;99216.75;;;16.08;100.00
19108;BME280;9686;48.832;9.126;2022-10-03T11:44:00;99221.72;;;16.32;100.00
19108;BME280;9686;48.832;9.126;2022-10-03T11:54:43;99200.91;;;16.15;100.00
19108;BME280;9686;48.832;9.126;2022-10-03T11:57:33;99202.66;;;16.13;100.00
19108;BME280;9686;48.832;9.126;2022-10-03T12:02:53;99200.06;;;16.10;100.00
19108;BME280;9686;48.832;9.126;2022-10-03T12:11:06;99198.56;;;16.57;100.00
19108;BME280;9686;48.832;9.126;2022-10-03T12:25:15;99192.03;;;16.22;100.00
19108;BME280;9686;48.832;9.126;2022-10-03T12:27:51;99182.34;;;16.24;100.00
19108;BME280;9686;48.832;9.126;2022-10-03T12:30:20;99186.97;;;16.06;100.00
19108;BME280;9686;48.832;9.126;2022-10-03T12:33:02;99184.28;;;16.10;100.00
19108;BME280;9686;48.832;9.126;2022-10-03T12:35:43;99179.00;;;16.12;100.00
19108;BME280;9686;48.832;9.126;2022-10-03T12:41:03;99184.94;;;16.27;100.00
19108;BME280;9686;48.832;9.126;2022-10-03T12:44:18;99179.84;;;16.17;100.00
19108;BME280;9686;48.832;9.126;2022-10-03T12:47:16;99170.78;;;16.36;100.00
19108;BME280;9686;48.832;9.126;2022-10-03T12:52:48;99163.81;;;16.32;100.00
19108;BME280;9686;48.832;9.126;2022-10-03T12:55:25;99163.81;;;16.32;100.00
19108;BME280;9686;48.832;9.126;2022-10-03T13:03:44;99154.06;;;16.42;100.00
19108;BME280;9686;48.832;9.126;2022-10-03T13:06:39;99157.59;;;16.38;100.00
19108;BME280;9686;48.832;9.126;2022-10-03T13:12:23;99145.91;;;16.57;100.00
19108;BME280;9686;48.832;9.126;2022-10-03T13:20:41;99146.91;;;16.50;100.00
19108;BME280;9686;48.832;9.126;2022-10-03T13:25:59;99150.19;;;16.69;100.00
19108;BME280;9686;48.832;9.126;2022-10-03T13:28:47;99142.13;;;16.78;95.38
19108;BME280;9686;48.832;9.126;2022-10-03T13:31:50;99140.34;;;16.78;100.00
19108;BME280;9686;48.832;9.126;2022-10-03T13:34:25;99132.53;;;16.74;100.00
19108;BME280;9686;48.832;9.126;2022-10-03T13:36:59;99133.47;;;16.70;100.00
19108;BME280;9686;48.832;9.126;2022-10-03T13:39:45;99136.16;;;16.67;95.07
19108;BME280;9686;48.832;9.126;2022-10-03T13:42:17;99129.13;;;16.69;92.45
19108;BME280;9686;48.832;9.126;2022-10-03T13:44:48;99135.25;;;16.69;90.72
19108;BME280;9686;48.832;9.126;2022-10-03T13:50:30;99128.34;;;16.57;100.00
19108;BME280;9686;48.832;9.126;2022-10-03T13:53:19;99132.34;;;16.84;97.61
19108;BME280;9686;48.832;9.126;2022-10-03T13:56:05;99134.81;;;16.95;100.00
19108;BME280;9686;48.832;9.126;2022-10-03T14:01:36;99123.50;;;16.88;100.00
19108;BME280;9686;48.832;9.126;2022-10-03T14:12:57;99116.53;;;16.84;100.00
19108;BME280;9686;48.832;9.126;2022-10-03T14:18:28;99106.75;;;16.94;89.19
19108;BME280;9686;48.832;9.126;2022-10-03T14:26:52;99097.13;;;17.38;99.56
19108;BME280;9686;48.832;9.126;2022-10-03T14:32:04;99102.53;;;17.32;99.69
19108;BME280;9686;48.832;9.126;2022-10-03T14:40:01;99083.19;;;17.33;89.21
19108;BME280;9686;48.832;9.126;2022-10-03T14:42:42;99084.88;;;17.37;95.70
19108;BME280;9686;48.832;9.126;2022-10-03T14:45:16;99083.28;;;17.28;94.42
19108;BME280;9686;48.832;9.126;2022-10-03T14:47:48;99081.56;;;17.25;96.44
19108;BME280;9686;48.832;9.126;2022-10-03T14:50:17;99087.81;;;17.21;98.76
19108;BME280;9686;48.832;9.126;2022-10-03T14:52:56;99078.91;;;17.27;100.00
19108;BME280;9686;48.832;9.126;2022-10-03T14:55:29;99074.66;;;17.20;92.73
19108;BME280;9686;48.832;9.126;2022-10-03T14:58:09;99083.97;;;17.38;98.57
19108;BME280;9686;48.832;9.126;2022-10-03T15:00:41;99081.16;;;17.47;98.49
19108;BME280;9686;48.832;9.126;2022-10-03T15:06:15;99084.28;;;17.67;92.38
19108;BME280;9686;48.832;9.126;2022-10-03T15:08:47;99083.56;;;17.57;97.57
19108;BME280;9686;48.832;9.126;2022-10-03T15:11:16;99078.00;;;17.74;97.51
19108;BME280;9686;48.832;9.126;2022-10-03T15:13:52;99072.44;;;17.45;89.25
19108;BME280;9686;48.832;9.126;2022-10-03T15:16:21;99083.88;;;17.87;90.25
19108;BME280;9686;48.832;9.126;2022-10-03T15:18:53;99076.72;;;17.92;85.24
19108;BME280;9686;48.832;9.126;2022-10-03T15:21:21;99079.44;;;17.89;89.86
19108;BME280;9686;48.832;9.126;2022-10-03T15:23:53;99081.84;;;18.00;96.78
19108;BME280;9686;48.832;9.126;2022-10-03T15:26:22;99082.53;;;18.08;85.58
19108;BME280;9686;48.832;9.126;2022-10-03T15:28:54;99078.25;;;18.41;74.80
19108;BME280;9686;48.832;9.126;2022-10-03T15:31:50;99074.44;;;21.24;64.31
19108;BME280;9686;48.832;9.126;2022-10-03T15:34:24;99068.75;;;23.34;47.76
19108;BME280;9686;48.832;9.126;2022-10-03T15:36:58;99069.69;;;25.55;41.34
19108;BME280;9686;48.832;9.126;2022-10-03T15:39:38;99057.88;;;25.59;38.92
19108;BME280;9686;48.832;9.126;2022-10-03T15:44:36;99059.03;;;25.03;43.36
19108;BME280;9686;48.832;9.126;2022-10-03T15:47:11;99050.19;;;24.66;43.37
19108;BME280;9686;48.832;9.126;2022-10-03T15:49:47;99057.59;;;23.26;47.76
19108;BME280;9686;48.832;9.126;2022-10-03T15:52:18;99063.56;;;24.10;47.33
19108;BME280;9686;48.832;9.126;2022-10-03T15:54:49;99054.91;;;24.96;45.54
19108;BME280;9686;48.832;9.126;2022-10-03T15:57:39;99057.16;;;24.69;43.80
19108;BME280;9686;48.832;9.126;2022-10-03T16:00:21;99067.59;;;22.13;50.63
19108;BME280;9686;48.832;9.126;2022-10-03T16:02:48;99058.84;;;20.62;56.50
19108;BME280;9686;48.832;9.126;2022-10-03T16:05:20;99059.69;;;19.46;67.39
19108;BME280;9686;48.832;9.126;2022-10-03T16:07:56;99072.22;;;18.73;73.51
19108;BME280;9686;48.832;9.126;2022-10-03T16:10:36;99077.00;;;18.18;79.97
19108;BME280;9686;48.832;9.126;2022-10-03T16:13:19;99069.63;;;17.96;100.00
19108;BME280;9686;48.832;9.126;2022-10-03T16:21:14;99070.50;;;17.07;100.00
19108;BME280;9686;48.832;9.126;2022-10-03T16:23:43;99068.81;;;17.03;100.00
19108;BME280;9686;48.832;9.126;2022-10-03T16:26:17;99059.81;;;16.63;100.00
19108;BME280;9686;48.832;9.126;2022-10-03T16:28:50;99057.41;;;16.50;100.00
19108;BME280;9686;48.832;9.126;2022-10-03T16:31:29;99063.19;;;16.18;100.00
19108;BME280;9686;48.832;9.126;2022-10-03T16:34:02;99065.13;;;16.03;100.00
19108;BME280;9686;48.832;9.126;2022-10-03T16:36:31;99064.47;;;15.86;100.00
19108;BME280;9686;48.832;9.126;2022-10-03T16:39:05;99065.31;;;15.91;100.00
19108;BME280;9686;48.832;9.126;2022-10-03T16:41:40;99059.34;;;15.79;100.00
19108;BME280;9686;48.832;9.126;2022-10-03T16:44:25;99070.16;;;15.51;100.00
19108;BME280;9686;48.832;9.126;2022-10-03T16:46:53;99064.88;;;15.53;100.00
19108;BME280;9686;48.832;9.126;2022-10-03T16:49:39;99063.34;;;15.38;100.00
19108;BME280;9686;48.832;9.126;2022-10-03T16:52:31;99077.50;;;15.22;100.00
19108;BME280;9686;48.832;9.126;2022-10-03T16:55:11;99081.91;;;15.21;100.00
19108;BME280;9686;48.832;9.126;2022-10-03T16:58:01;99078.38;;;15.22;100.00
19108;BME280;9686;48.832;9.126;2022-10-03T17:00:53;99084.75;;;14.98;100.00
19108;BME280;9686;48.832;9.126;2022-10-03T17:03:28;99086.72;;;14.73;100.00
19108;BME280;9686;48.832;9.126;2022-10-03T17:05:58;99081.63;;;14.60;100.00
19108;BME280;9686;48.832;9.126;2022-10-03T17:08:27;99082.44;;;14.65;100.00
19108;BME280;9686;48.832;9.126;2022-10-03T17:11:03;99088.69;;;14.48;100.00
19108;BME280;9686;48.832;9.126;2022-10-03T17:13:41;99083.50;;;14.35;100.00
19108;BME280;9686;48.832;9.126;2022-10-03T17:16:49;99073.97;;;14.20;100.00
19108;BME280;9686;48.832;9.126;2022-10-03T17:21:52;99074.16;;;13.94;100.00
19108;BME280;9686;48.832;9.126;2022-10-03T17:27:00;99063.59;;;14.03;100.00
19108;BME280;9686;48.832;9.126;2022-10-03T17:29:34;99065.34;;;14.01;100.00
19108;BME280;9686;48.832;9.126;2022-10-03T17:32:07;99068.91;;;13.91;100.00
19108;BME280;9686;48.832;9.126;2022-10-03T17:34:37;99069.88;;;13.72;100.00
19108;BME280;9686;48.832;9.126;2022-10-03T17:37:33;99061.16;;;13.73;100.00
19108;BME280;9686;48.832;9.126;2022-10-03T17:40:19;99064.63;;;13.76;100.00
19108;BME280;9686;48.832;9.126;2022-10-03T17:42:59;99066.47;;;13.61;100.00
19108;BME280;9686;48.832;9.126;2022-10-03T17:48:13;99071.78;;;13.39;100.00
19108;BME280;9686;48.832;9.126;2022-10-03T17:53:36;99067.44;;;13.23;100.00
19108;BME280;9686;48.832;9.126;2022-10-03T17:56:10;99069.19;;;13.16;100.00
19108;BME280;9686;48.832;9.126;2022-10-03T17:58:39;99066.59;;;13.12;100.00
19108;BME280;9686;48.832;9.126;2022-10-03T18:03:48;99065.72;;;12.99;100.00
19108;BME280;9686;48.832;9.126;2022-10-03T18:09:05;99066.59;;;13.07;100.00
19108;BME280;9686;48.832;9.126;2022-10-03T18:11:33;99060.47;;;13.13;100.00
19108;BME280;9686;48.832;9.126;2022-10-03T18:14:14;99057.03;;;13.02;100.00
19108;BME280;9686;48.832;9.126;2022-10-03T18:19:41;99053.56;;;12.61;100.00
19108;BME280;9686;48.832;9.126;2022-10-03T18:25:02;99052.69;;;12.49;100.00
19108;BME280;9686;48.832;9.126;2022-10-03T18:30:44;99044.88;;;12.59;100.00
19108;BME280;9686;48.832;9.126;2022-10-03T18:33:22;99051.81;;;12.70;100.00
19108;BME280;9686;48.832;9.126;2022-10-03T18:35:48;99044.84;;;12.64;100.00
19108;BME280;9686;48.832;9.126;2022-10-03T18:38:22;99054.44;;;12.62;100.00
19108;BME280;9686;48.832;9.126;2022-10-03T18:40:57;99053.59;;;12.60;100.00
19108;BME280;9686;48.832;9.126;2022-10-03T18:43:32;99055.31;;;12.40;100.00
19108;BME280;9686;48.832;9.126;2022-10-03T18:46:13;99060.53;;;12.12;100.00
19108;BME280;9686;48.832;9.126;2022-10-03T18:48:56;99053.59;;;12.23;100.00
19108;BME280;9686;48.832;9.126;2022-10-03T18:51:38;99050.09;;;12.35;100.00
19108;BME280;9686;48.832;9.126;2022-10-03T18:57:38;99051.81;;;12.06;100.00
19108;BME280;9686;48.832;9.126;2022-10-03T19:00:18;99048.31;;;12.08;100.00
19108;BME280;9686;48.832;9.126;2022-10-03T19:03:03;99045.72;;;12.14;100.00
19108;BME280;9686;48.832;9.126;2022-10-03T19:05:36;99051.81;;;12.12;100.00
19108;BME280;9686;48.832;9.126;2022-10-03T19:08:19;99054.38;;;11.96;100.00
19108;BME280;9686;48.832;9.126;2022-10-03T19:10:52;99053.50;;;11.91;100.00
19108;BME280;9686;48.832;9.126;2022-10-03T19:13:29;99048.31;;;12.08;100.00
19108;BME280;9686;48.832;9.126;2022-10-03T19:16:24;99059.59;;;11.93;100.00
19108;BME280;9686;48.832;9.126;2022-10-03T19:21:23;99068.22;;;11.65;100.00
19108;BME280;9686;48.832;9.126;2022-10-03T19:23:59;99069.19;;;11.88;100.00
19108;BME280;9686;48.832;9.126;2022-10-03T19:26:32;99067.44;;;11.84;100.00
19108;BME280;9686;48.832;9.126;2022-10-03T19:29:07;99076.06;;;11.69;100.00
19108;BME280;9686;48.832;9.126;2022-10-03T19:31:42;99069.97;;;11.70;100.00
19108;BME280;9686;48.832;9.126;2022-10-03T19:34:18;99075.22;;;11.72;100.00
19108;BME280;9686;48.832;9.126;2022-10-03T19:36:48;99071.66;;;11.52;100.00
19108;BME280;9686;48.832;9.126;2022-10-03T19:39:16;99074.28;;;11.55;100.00
19108;BME280;9686;48.832;9.126;2022-10-03T19:44:17;99067.22;;;11.37;100.00
19108;BME280;9686;48.832;9.126;2022-10-03T19:46:52;99068.09;;;11.40;100.00
19108;BME280;9686;48.832;9.126;2022-10-03T19:49:42;99063.75;;;11.41;100.00
19108;BME280;9686;48.832;9.126;2022-10-03T19:52:28;99061.22;;;11.58;100.00
19108;BME280;9686;48.832;9.126;2022-10-03T19:55:11;99058.59;;;11.46;100.00
19108;BME280;9686;48.832;9.126;2022-10-03T19:57:56;99058.53;;;11.38;100.00
19108;BME280;9686;48.832;9.126;2022-10-03T20:03:13;99056.78;;;11.38;100.00
19108;BME280;9686;48.832;9.126;2022-10-03T20:08:59;99053.28;;;11.35;100.00
19108;BME280;9686;48.832;9.126;2022-10-03T20:14:14;99061.00;;;11.13;100.00
19108;BME280;9686;48.832;9.126;2022-10-03T20:16:44;99055.78;;;11.12;100.00
19108;BME280;9686;48.832;9.126;2022-10-03T20:19:20;99047.91;;;11.03;100.00
19108;BME280;9686;48.832;9.126;2022-10-03T20:21:52;99055.72;;;11.00;100.00
19108;BME280;9686;48.832;9.126;2022-10-03T20:24:36;99050.53;;;11.01;100.00
19108;BME280;9686;48.832;9.126;2022-10-03T20:30:17;99047.91;;;10.98;100.00
19108;BME280;9686;48.832;9.126;2022-10-03T20:32:46;99049.66;;;11.01;100.00
19108;BME280;9686;48.832;9.126;2022-10-03T20:35:18;99052.19;;;10.92;100.00
19108;BME280;9686;48.832;9.126;2022-10-03T20:37:46;99056.34;;;10.65;100.00
19108;BME280;9686;48.832;9.126;2022-10-03T20:40:25;99057.16;;;10.55;100.00
19108;BME280;9686;48.832;9.126;2022-10-03T20:46:02;99051.13;;;10.64;100.00
19108;BME280;9686;48.832;9.126;2022-10-03T20:48:36;99054.75;;;10.86;100.00
19108;BME280;9686;48.832;9.126;2022-10-03T20:51:20;99057.38;;;10.86;100.00
19108;BME280;9686;48.832;9.126;2022-10-03T20:53:46;99046.03;;;10.80;100.00
19108;BME280;9686;48.832;9.126;2022-10-03T20:56:19;99052.97;;;10.78;100.00
19108;BME280;9686;48.832;9.126;2022-10-03T20:58:52;99055.59;;;10.78;100.00
19108;BME280;9686;48.832;9.126;2022-10-03T21:01:23;99053.03;;;10.86;100.00
19108;BME280;9686;48.832;9.126;2022-10-03T21:06:26;99053.91;;;10.90;100.00
19108;BME280;9686;48.832;9.126;2022-10-03T21:08:55;99056.44;;;10.76;100.00
19108;BME280;9686;48.832;9.126;2022-10-03T21:11:23;99049.44;;;10.69;100.00
19108;BME280;9686;48.832;9.126;2022-10-03T21:13:55;99039.91;;;10.71;100.00
19108;BME280;9686;48.832;9.126;2022-10-03T21:16:36;99044.94;;;10.46;100.00
19108;BME280;9686;48.832;9.126;2022-10-03T21:19:17;99044.84;;;10.39;100.00
19108;BME280;9686;48.832;9.126;2022-10-03T21:21:50;99044.78;;;10.31;100.00
19108;BME280;9686;48.832;9.126;2022-10-03T21:24:53;99036.06;;;10.23;100.00
19108;BME280;9686;48.832;9.126;2022-10-03T21:27:21;99030.69;;;10.11;100.00
19108;BME280;9686;48.832;9.126;2022-10-03T21:29:57;99023.69;;;10.07;100.00
19108;BME280;9686;48.832;9.126;2022-10-03T21:32:58;99016.00;;;10.16;100.00
19108;BME280;9686;48.832;9.126;2022-10-03T21:35:31;99016.88;;;10.19;100.00
19108;BME280;9686;48.832;9.126;2022-10-03T21:38:28;99009.84;;;10.09;100.00
19108;BME280;9686;48.832;9.126;2022-10-03T21:41:12;99010.66;;;10.05;100.00
19108;BME280;9686;48.832;9.126;2022-10-03T21:49:48;99019.28;;;9.98;100.00
19108;BME280;9686;48.832;9.126;2022-10-03T21:55:00;99015.75;;;9.92;100.00
19108;BME280;9686;48.832;9.126;2022-10-03T21:57:49;99017.56;;;10.00;100.00
19108;BME280;9686;48.832;9.126;2022-10-03T22:00:26;99009.63;;;9.86;100.00
19108;BME280;9686;48.832;9.126;2022-10-03T22:03:00;99008.69;;;9.81;100.00
19108;BME280;9686;48.832;9.126;2022-10-03T22:08:22;99015.56;;;9.73;100.00
19108;BME280;9686;48.832;9.126;2022-10-03T22:13:38;99002.44;;;9.63;100.00
19108;BME280;9686;48.832;9.126;2022-10-03T22:16:15;99001.53;;;9.61;100.00
19108;BME280;9686;48.832;9.126;2022-10-03T22:21:38;98992.94;;;9.66;100.00
19108;BME280;9686;48.832;9.126;2022-10-03T22:24:18;98994.59;;;9.61;100.00
19108;BME280;9686;48.832;9.126;2022-10-03T22:27:14;98991.94;;;9.55;100.00
19108;BME280;9686;48.832;9.126;2022-10-03T22:30:13;98997.31;;;9.69;100.00
19108;BME280;9686;48.832;9.126;2022-10-03T22:33:00;98988.59;;;9.64;100.00
19108;BME280;9686;48.832;9.126;2022-10-03T22:35:52;98978.94;;;9.56;100.00
19108;BME280;9686;48.832;9.126;2022-10-03T22:38:30;98981.53;;;9.55;100.00
19108;BME280;9686;48.832;9.126;2022-10-03T22:41:00;98987.56;;;9.51;100.00
19108;BME280;9686;48.832;9.126;2022-10-03T22:43:27;98979.75;;;9.49;100.00
19108;BME280;9686;48.832;9.126;2022-10-03T22:45:54;98977.97;;;9.45;100.00
19108;BME280;9686;48.832;9.126;2022-10-03T22:48:24;98977.09;;;9.45;100.00
19108;BME280;9686;48.832;9.126;2022-10-03T22:50:52;98971.88;;;9.42;100.00
19108;BME280;9686;48.832;9.126;2022-10-03T22:53:22;98975.41;;;9.50;100.00
19108;BME280;9686;48.832;9.126;2022-10-03T22:55:52;98966.69;;;9.43;100.00
19108;BME280;9686;48.832;9.126;2022-10-03T22:58:19;98967.50;;;9.38;100.00
19108;BME280;9686;48.832;9.126;2022-10-03T23:00:48;98972.66;;;9.36;100.00
19108;BME280;9686;48.832;9.126;2022-10-03T23:03:21;98968.16;;;9.20;100.00
19108;BME280;9686;48.832;9.126;2022-10-03T23:11:27;98960.41;;;9.26;100.00
19108;BME280;9686;48.832;9.126;2022-10-03T23:13:55;98960.44;;;9.31;100.00
19108;BME280;9686;48.832;9.126;2022-10-03T23:19:50;98956.91;;;9.22;100.00
19108;BME280;9686;48.832;9.126;2022-10-03T23:22:23;98960.31;;;9.17;100.00
19108;BME280;9686;48.832;9.126;2022-10-03T23:25:01;98962.88;;;9.14;100.00
19108;BME280;9686;48.832;9.126;2022-10-03T23:32:52;98961.19;;;9.17;100.00
19108;BME280;9686;48.832;9.126;2022-10-03T23:35:32;98956.84;;;9.18;100.00
19108;BME280;9686;48.832;9.126;2022-10-03T23:38:00;98956.84;;;9.18;100.00
19108;BME280;9686;48.832;9.126;2022-10-03T23:40:38;98951.50;;;9.07;100.00
19108;BME280;9686;48.832;9.126;2022-10-03T23:45:50;98945.44;;;9.07;100.00
19108;BME280;9686;48.832;9.126;2022-10-03T23:48:19;98934.13;;;9.03;100.00
19108;BME280;9686;48.832;9.126;2022-10-03T23:50:56;98944.47;;;8.99;100.00
19108;BME280;9686;48.832;9.126;2022-10-03T23:53:38;98944.47;;;8.99;100.00
19108;BME280;9686;48.832;9.126;2022-10-03T23:59:16;98934.84;;;8.90;100.00
